sim
Sign-in with your pilot id or email,
or register
Callsign
Passwort

Schedule Details

Flight Number: DLH2102
Departure: Munich Airport (EDDM) at 18:25
Arrival: Hannover Langenhagen Airport (EDDV) at 19:30
Route: Lufthansa Passenger Schedule. Enter filed route here before submitting Pirep.

Weather Information
Getting current METAR information for EDDM 281020Z 25005KT 9999 FEW007 SCT045 09/07 Q1011 NOSIG
Getting current METAR information for EDDV 281020Z 22006KT 190V270 9999 FEW020 14/09 Q1009 NOSIG

Schedule Frequency

Route Map